sensor_id;sensor_type;location;lat;lon;timestamp;P1;durP1;ratioP1;P2;durP2;ratioP2
22121;SDS011;11227;53.046;10.512;2022-09-09T00:11:13;0.70;;;0.70;;
22121;SDS011;11227;53.046;10.512;2022-09-09T00:15:30;0.70;;;0.70;;
22121;SDS011;11227;53.046;10.512;2022-09-09T00:19:58;0.85;;;0.85;;
22121;SDS011;11227;53.046;10.512;2022-09-09T00:24:09;0.50;;;0.50;;
22121;SDS011;11227;53.046;10.512;2022-09-09T00:28:27;0.75;;;0.75;;
22121;SDS011;11227;53.046;10.512;2022-09-09T00:32:33;0.93;;;0.93;;
22121;SDS011;11227;53.046;10.512;2022-09-09T00:36:36;0.60;;;0.60;;
22121;SDS011;11227;53.046;10.512;2022-09-09T00:40:49;0.70;;;0.70;;
22121;SDS011;11227;53.046;10.512;2022-09-09T00:49:37;1.00;;;0.95;;
22121;SDS011;11227;53.046;10.512;2022-09-09T00:58:13;0.63;;;0.63;;
22121;SDS011;11227;53.046;10.512;2022-09-09T01:02:50;0.70;;;0.70;;
22121;SDS011;11227;53.046;10.512;2022-09-09T01:06:50;0.60;;;0.60;;
22121;SDS011;11227;53.046;10.512;2022-09-09T01:10:57;0.73;;;0.73;;
22121;SDS011;11227;53.046;10.512;2022-09-09T01:15:03;1.15;;;0.80;;
22121;SDS011;11227;53.046;10.512;2022-09-09T01:19:05;0.85;;;0.63;;
22121;SDS011;11227;53.046;10.512;2022-09-09T01:23:27;0.88;;;0.73;;
22121;SDS011;11227;53.046;10.512;2022-09-09T01:27:52;0.70;;;0.70;;
22121;SDS011;11227;53.046;10.512;2022-09-09T01:36:45;0.80;;;0.80;;
22121;SDS011;11227;53.046;10.512;2022-09-09T01:40:54;0.80;;;0.80;;
22121;SDS011;11227;53.046;10.512;2022-09-09T01:44:56;1.20;;;0.82;;
22121;SDS011;11227;53.046;10.512;2022-09-09T01:48:58;2.33;;;0.80;;
22121;SDS011;11227;53.046;10.512;2022-09-09T01:53:01;0.75;;;0.73;;
22121;SDS011;11227;53.046;10.512;2022-09-09T01:57:25;0.60;;;0.60;;
22121;SDS011;11227;53.046;10.512;2022-09-09T02:01:39;0.60;;;0.60;;
22121;SDS011;11227;53.046;10.512;2022-09-09T02:05:45;0.88;;;0.60;;
22121;SDS011;11227;53.046;10.512;2022-09-09T02:09:57;1.02;;;0.93;;
22121;SDS011;11227;53.046;10.512;2022-09-09T02:14:34;0.60;;;0.60;;
22121;SDS011;11227;53.046;10.512;2022-09-09T02:18:45;0.60;;;0.60;;
22121;SDS011;11227;53.046;10.512;2022-09-09T02:22:50;0.95;;;0.82;;
22121;SDS011;11227;53.046;10.512;2022-09-09T02:26:53;0.70;;;0.70;;
22121;SDS011;11227;53.046;10.512;2022-09-09T02:30:58;0.60;;;0.60;;
22121;SDS011;11227;53.046;10.512;2022-09-09T02:35:09;0.68;;;0.68;;
22121;SDS011;11227;53.046;10.512;2022-09-09T02:39:16;0.65;;;0.65;;
22121;SDS011;11227;53.046;10.512;2022-09-09T02:43:18;0.60;;;0.60;;
22121;SDS011;11227;53.046;10.512;2022-09-09T02:51:35;0.57;;;0.50;;
22121;SDS011;11227;53.046;10.512;2022-09-09T02:59:56;0.65;;;0.65;;
22121;SDS011;11227;53.046;10.512;2022-09-09T03:03:59;0.70;;;0.70;;
22121;SDS011;11227;53.046;10.512;2022-09-09T03:08:01;0.68;;;0.68;;
22121;SDS011;11227;53.046;10.512;2022-09-09T03:12:04;0.70;;;0.70;;
22121;SDS011;11227;53.046;10.512;2022-09-09T03:16:06;0.80;;;0.80;;
22121;SDS011;11227;53.046;10.512;2022-09-09T03:20:08;0.77;;;0.73;;
22121;SDS011;11227;53.046;10.512;2022-09-09T03:24:10;0.70;;;0.70;;
22121;SDS011;11227;53.046;10.512;2022-09-09T03:28:11;0.70;;;0.70;;
22121;SDS011;11227;53.046;10.512;2022-09-09T03:32:13;0.68;;;0.68;;
22121;SDS011;11227;53.046;10.512;2022-09-09T03:36:18;1.05;;;0.70;;
22121;SDS011;11227;53.046;10.512;2022-09-09T03:40:20;0.93;;;0.57;;
22121;SDS011;11227;53.046;10.512;2022-09-09T03:44:21;0.60;;;0.60;;
22121;SDS011;11227;53.046;10.512;2022-09-09T03:48:23;1.55;;;0.60;;
22121;SDS011;11227;53.046;10.512;2022-09-09T03:52:26;0.70;;;0.70;;
22121;SDS011;11227;53.046;10.512;2022-09-09T03:56:28;0.80;;;0.80;;
22121;SDS011;11227;53.046;10.512;2022-09-09T04:00:29;0.55;;;0.55;;
22121;SDS011;11227;53.046;10.512;2022-09-09T04:04:31;0.60;;;0.60;;
22121;SDS011;11227;53.046;10.512;2022-09-09T04:08:33;0.60;;;0.60;;
22121;SDS011;11227;53.046;10.512;2022-09-09T04:12:36;0.70;;;0.70;;
22121;SDS011;11227;53.046;10.512;2022-09-09T04:16:38;0.70;;;0.70;;
22121;SDS011;11227;53.046;10.512;2022-09-09T04:20:40;0.60;;;0.60;;
22121;SDS011;11227;53.046;10.512;2022-09-09T04:24:41;0.85;;;0.70;;
22121;SDS011;11227;53.046;10.512;2022-09-09T04:28:48;0.68;;;0.68;;
22121;SDS011;11227;53.046;10.512;2022-09-09T04:32:50;1.58;;;0.75;;
22121;SDS011;11227;53.046;10.512;2022-09-09T04:36:52;0.85;;;0.75;;
22121;SDS011;11227;53.046;10.512;2022-09-09T04:40:53;0.50;;;0.50;;
22121;SDS011;11227;53.046;10.512;2022-09-09T04:44:55;0.88;;;0.82;;
22121;SDS011;11227;53.046;10.512;2022-09-09T04:48:56;0.50;;;0.50;;
22121;SDS011;11227;53.046;10.512;2022-09-09T04:53:01;0.73;;;0.70;;
22121;SDS011;11227;53.046;10.512;2022-09-09T04:57:04;0.80;;;0.70;;
22121;SDS011;11227;53.046;10.512;2022-09-09T05:01:10;0.50;;;0.50;;
22121;SDS011;11227;53.046;10.512;2022-09-09T05:05:23;0.50;;;0.50;;
22121;SDS011;11227;53.046;10.512;2022-09-09T05:09:24;0.40;;;0.40;;
22121;SDS011;11227;53.046;10.512;2022-09-09T05:13:26;0.40;;;0.40;;
22121;SDS011;11227;53.046;10.512;2022-09-09T05:17:28;0.50;;;0.50;;
22121;SDS011;11227;53.046;10.512;2022-09-09T05:21:30;0.52;;;0.52;;
22121;SDS011;11227;53.046;10.512;2022-09-09T05:25:32;0.50;;;0.50;;
22121;SDS011;11227;53.046;10.512;2022-09-09T05:29:34;0.75;;;0.50;;
22121;SDS011;11227;53.046;10.512;2022-09-09T05:33:35;0.57;;;0.57;;
22121;SDS011;11227;53.046;10.512;2022-09-09T05:37:37;0.75;;;0.50;;
22121;SDS011;11227;53.046;10.512;2022-09-09T05:41:39;0.50;;;0.50;;
22121;SDS011;11227;53.046;10.512;2022-09-09T05:45:41;0.50;;;0.50;;
22121;SDS011;11227;53.046;10.512;2022-09-09T05:49:42;0.50;;;0.50;;
22121;SDS011;11227;53.046;10.512;2022-09-09T05:53:44;0.50;;;0.50;;
22121;SDS011;11227;53.046;10.512;2022-09-09T05:57:49;0.50;;;0.50;;
22121;SDS011;11227;53.046;10.512;2022-09-09T06:05:59;0.50;;;0.50;;
22121;SDS011;11227;53.046;10.512;2022-09-09T06:10:06;0.68;;;0.68;;
22121;SDS011;11227;53.046;10.512;2022-09-09T06:14:09;0.50;;;0.50;;
22121;SDS011;11227;53.046;10.512;2022-09-09T06:18:11;0.60;;;0.60;;
22121;SDS011;11227;53.046;10.512;2022-09-09T06:22:12;0.65;;;0.65;;
22121;SDS011;11227;53.046;10.512;2022-09-09T06:30:18;0.77;;;0.50;;
22121;SDS011;11227;53.046;10.512;2022-09-09T06:34:20;0.43;;;0.43;;
22121;SDS011;11227;53.046;10.512;2022-09-09T06:38:22;0.52;;;0.50;;
22121;SDS011;11227;53.046;10.512;2022-09-09T06:42:24;0.80;;;0.50;;
22121;SDS011;11227;53.046;10.512;2022-09-09T06:46:27;0.60;;;0.60;;
22121;SDS011;11227;53.046;10.512;2022-09-09T06:50:31;0.53;;;0.53;;
22121;SDS011;11227;53.046;10.512;2022-09-09T06:54:32;0.55;;;0.55;;
22121;SDS011;11227;53.046;10.512;2022-09-09T06:58:34;0.50;;;0.50;;
22121;SDS011;11227;53.046;10.512;2022-09-09T07:02:37;0.55;;;0.55;;
22121;SDS011;11227;53.046;10.512;2022-09-09T07:06:41;0.60;;;0.60;;
22121;SDS011;11227;53.046;10.512;2022-09-09T07:10:47;0.50;;;0.50;;
22121;SDS011;11227;53.046;10.512;2022-09-09T07:14:48;0.50;;;0.50;;
22121;SDS011;11227;53.046;10.512;2022-09-09T07:18:51;0.50;;;0.50;;
22121;SDS011;11227;53.046;10.512;2022-09-09T07:22:54;0.60;;;0.60;;
22121;SDS011;11227;53.046;10.512;2022-09-09T07:26:57;0.50;;;0.50;;
22121;SDS011;11227;53.046;10.512;2022-09-09T07:31:00;0.57;;;0.57;;
22121;SDS011;11227;53.046;10.512;2022-09-09T07:35:04;0.60;;;0.60;;
22121;SDS011;11227;53.046;10.512;2022-09-09T07:39:07;0.50;;;0.50;;
22121;SDS011;11227;53.046;10.512;2022-09-09T07:43:14;0.40;;;0.40;;
22121;SDS011;11227;53.046;10.512;2022-09-09T07:47:17;0.38;;;0.38;;
22121;SDS011;11227;53.046;10.512;2022-09-09T07:51:20;0.40;;;0.40;;
22121;SDS011;11227;53.046;10.512;2022-09-09T07:55:24;0.55;;;0.55;;
22121;SDS011;11227;53.046;10.512;2022-09-09T07:59:26;0.40;;;0.40;;
22121;SDS011;11227;53.046;10.512;2022-09-09T08:03:28;0.50;;;0.50;;
22121;SDS011;11227;53.046;10.512;2022-09-09T08:07:30;0.68;;;0.60;;
22121;SDS011;11227;53.046;10.512;2022-09-09T08:11:31;0.40;;;0.40;;
22121;SDS011;11227;53.046;10.512;2022-09-09T08:15:39;0.50;;;0.50;;
22121;SDS011;11227;53.046;10.512;2022-09-09T08:19:42;0.40;;;0.40;;
22121;SDS011;11227;53.046;10.512;2022-09-09T08:23:44;0.45;;;0.45;;
22121;SDS011;11227;53.046;10.512;2022-09-09T08:27:47;0.50;;;0.47;;
22121;SDS011;11227;53.046;10.512;2022-09-09T08:31:50;0.65;;;0.50;;
22121;SDS011;11227;53.046;10.512;2022-09-09T08:35:55;0.47;;;0.47;;
22121;SDS011;11227;53.046;10.512;2022-09-09T08:39:57;0.40;;;0.40;;
22121;SDS011;11227;53.046;10.512;2022-09-09T08:44:06;0.40;;;0.40;;
22121;SDS011;11227;53.046;10.512;2022-09-09T08:48:48;0.60;;;0.40;;
22121;SDS011;11227;53.046;10.512;2022-09-09T08:56:57;0.50;;;0.50;;
22121;SDS011;11227;53.046;10.512;2022-09-09T09:09:40;0.40;;;0.40;;
22121;SDS011;11227;53.046;10.512;2022-09-09T09:13:45;0.50;;;0.50;;
22121;SDS011;11227;53.046;10.512;2022-09-09T09:17:54;0.63;;;0.50;;
22121;SDS011;11227;53.046;10.512;2022-09-09T09:26:30;0.40;;;0.40;;
22121;SDS011;11227;53.046;10.512;2022-09-09T09:30:38;0.40;;;0.40;;
22121;SDS011;11227;53.046;10.512;2022-09-09T09:34:54;0.50;;;0.50;;
22121;SDS011;11227;53.046;10.512;2022-09-09T09:38:59;0.40;;;0.40;;
22121;SDS011;11227;53.046;10.512;2022-09-09T09:43:24;0.40;;;0.40;;
22121;SDS011;11227;53.046;10.512;2022-09-09T09:47:34;0.55;;;0.50;;
22121;SDS011;11227;53.046;10.512;2022-09-09T09:51:36;0.50;;;0.50;;
22121;SDS011;11227;53.046;10.512;2022-09-09T09:55:44;0.60;;;0.60;;
22121;SDS011;11227;53.046;10.512;2022-09-09T10:00:13;0.60;;;0.60;;
22121;SDS011;11227;53.046;10.512;2022-09-09T10:04:19;0.50;;;0.50;;
22121;SDS011;11227;53.046;10.512;2022-09-09T10:08:25;0.52;;;0.52;;
22121;SDS011;11227;53.046;10.512;2022-09-09T10:21:03;0.57;;;0.57;;
22121;SDS011;11227;53.046;10.512;2022-09-09T10:38:53;0.57;;;0.57;;
22121;SDS011;11227;53.046;10.512;2022-09-09T10:42:48;0.60;;;0.43;;
22121;SDS011;11227;53.046;10.512;2022-09-09T10:47:11;0.40;;;0.40;;
22121;SDS011;11227;53.046;10.512;2022-09-09T10:51:39;0.40;;;0.40;;
22121;SDS011;11227;53.046;10.512;2022-09-09T10:55:48;0.60;;;0.60;;
22121;SDS011;11227;53.046;10.512;2022-09-09T10:59:55;0.45;;;0.45;;
22121;SDS011;11227;53.046;10.512;2022-09-09T11:04:05;0.40;;;0.40;;
22121;SDS011;11227;53.046;10.512;2022-09-09T11:08:18;0.40;;;0.40;;
22121;SDS011;11227;53.046;10.512;2022-09-09T11:12:20;0.47;;;0.47;;
22121;SDS011;11227;53.046;10.512;2022-09-09T11:20:35;0.50;;;0.50;;
22121;SDS011;11227;53.046;10.512;2022-09-09T11:24:39;0.35;;;0.35;;
22121;SDS011;11227;53.046;10.512;2022-09-09T11:28:55;0.70;;;0.60;;
22121;SDS011;11227;53.046;10.512;2022-09-09T11:46:14;0.52;;;0.40;;
22121;SDS011;11227;53.046;10.512;2022-09-09T11:54:30;0.40;;;0.40;;
22121;SDS011;11227;53.046;10.512;2022-09-09T11:58:36;0.32;;;0.32;;
22121;SDS011;11227;53.046;10.512;2022-09-09T12:02:47;0.50;;;0.50;;
22121;SDS011;11227;53.046;10.512;2022-09-09T12:06:55;0.52;;;0.40;;
22121;SDS011;11227;53.046;10.512;2022-09-09T12:10:58;0.38;;;0.38;;
22121;SDS011;11227;53.046;10.512;2022-09-09T12:27:40;0.30;;;0.30;;
22121;SDS011;11227;53.046;10.512;2022-09-09T12:36:10;2.20;;;0.43;;
22121;SDS011;11227;53.046;10.512;2022-09-09T12:40:20;0.50;;;0.50;;
22121;SDS011;11227;53.046;10.512;2022-09-09T12:44:26;0.28;;;0.28;;
22121;SDS011;11227;53.046;10.512;2022-09-09T12:48:35;0.25;;;0.25;;
22121;SDS011;11227;53.046;10.512;2022-09-09T12:52:39;0.38;;;0.38;;
22121;SDS011;11227;53.046;10.512;2022-09-09T12:56:44;0.22;;;0.22;;
22121;SDS011;11227;53.046;10.512;2022-09-09T13:00:51;0.60;;;0.50;;
22121;SDS011;11227;53.046;10.512;2022-09-09T13:05:05;0.40;;;0.40;;
22121;SDS011;11227;53.046;10.512;2022-09-09T13:09:15;0.50;;;0.50;;
22121;SDS011;11227;53.046;10.512;2022-09-09T13:13:19;0.32;;;0.30;;
22121;SDS011;11227;53.046;10.512;2022-09-09T13:17:27;0.40;;;0.40;;
22121;SDS011;11227;53.046;10.512;2022-09-09T13:21:39;0.30;;;0.30;;
22121;SDS011;11227;53.046;10.512;2022-09-09T13:25:41;0.32;;;0.32;;
22121;SDS011;11227;53.046;10.512;2022-09-09T13:29:54;0.63;;;0.30;;
22121;SDS011;11227;53.046;10.512;2022-09-09T13:33:57;0.40;;;0.40;;
22121;SDS011;11227;53.046;10.512;2022-09-09T13:38:05;0.30;;;0.30;;
22121;SDS011;11227;53.046;10.512;2022-09-09T13:42:19;0.22;;;0.22;;
22121;SDS011;11227;53.046;10.512;2022-09-09T13:46:30;0.98;;;0.30;;
22121;SDS011;11227;53.046;10.512;2022-09-09T13:50:35;0.30;;;0.30;;
22121;SDS011;11227;53.046;10.512;2022-09-09T13:54:37;0.35;;;0.35;;
22121;SDS011;11227;53.046;10.512;2022-09-09T13:58:39;0.38;;;0.38;;
22121;SDS011;11227;53.046;10.512;2022-09-09T14:02:41;0.73;;;0.50;;
22121;SDS011;11227;53.046;10.512;2022-09-09T14:06:45;0.45;;;0.45;;
22121;SDS011;11227;53.046;10.512;2022-09-09T14:10:47;0.50;;;0.50;;
22121;SDS011;11227;53.046;10.512;2022-09-09T14:14:48;0.30;;;0.30;;
22121;SDS011;11227;53.046;10.512;2022-09-09T14:18:51;0.20;;;0.20;;
22121;SDS011;11227;53.046;10.512;2022-09-09T14:22:53;0.40;;;0.40;;
22121;SDS011;11227;53.046;10.512;2022-09-09T14:26:55;0.20;;;0.20;;
22121;SDS011;11227;53.046;10.512;2022-09-09T14:30:59;0.30;;;0.30;;
22121;SDS011;11227;53.046;10.512;2022-09-09T14:35:02;0.40;;;0.40;;
22121;SDS011;11227;53.046;10.512;2022-09-09T14:39:04;0.63;;;0.60;;
22121;SDS011;11227;53.046;10.512;2022-09-09T14:43:05;0.30;;;0.30;;
22121;SDS011;11227;53.046;10.512;2022-09-09T14:47:07;0.30;;;0.30;;
22121;SDS011;11227;53.046;10.512;2022-09-09T14:51:10;1.40;;;0.50;;
22121;SDS011;11227;53.046;10.512;2022-09-09T14:55:14;0.30;;;0.30;;
22121;SDS011;11227;53.046;10.512;2022-09-09T14:59:16;0.40;;;0.40;;
22121;SDS011;11227;53.046;10.512;2022-09-09T15:03:17;0.40;;;0.40;;
22121;SDS011;11227;53.046;10.512;2022-09-09T15:07:19;0.30;;;0.30;;
22121;SDS011;11227;53.046;10.512;2022-09-09T15:11:21;0.25;;;0.25;;
22121;SDS011;11227;53.046;10.512;2022-09-09T15:15:25;0.30;;;0.30;;
22121;SDS011;11227;53.046;10.512;2022-09-09T15:19:27;0.20;;;0.20;;
22121;SDS011;11227;53.046;10.512;2022-09-09T15:23:30;0.20;;;0.20;;
22121;SDS011;11227;53.046;10.512;2022-09-09T15:27:33;0.30;;;0.30;;
22121;SDS011;11227;53.046;10.512;2022-09-09T15:31:35;0.38;;;0.38;;
22121;SDS011;11227;53.046;10.512;2022-09-09T15:35:37;0.30;;;0.30;;
22121;SDS011;11227;53.046;10.512;2022-09-09T15:39:39;0.38;;;0.38;;
22121;SDS011;11227;53.046;10.512;2022-09-09T15:43:45;0.30;;;0.30;;
22121;SDS011;11227;53.046;10.512;2022-09-09T15:47:50;0.50;;;0.50;;
22121;SDS011;11227;53.046;10.512;2022-09-09T15:51:56;0.40;;;0.40;;
22121;SDS011;11227;53.046;10.512;2022-09-09T15:56:07;0.30;;;0.30;;
22121;SDS011;11227;53.046;10.512;2022-09-09T16:00:09;0.20;;;0.20;;
22121;SDS011;11227;53.046;10.512;2022-09-09T16:04:13;0.40;;;0.40;;
22121;SDS011;11227;53.046;10.512;2022-09-09T16:08:21;0.88;;;0.45;;
22121;SDS011;11227;53.046;10.512;2022-09-09T16:12:23;0.40;;;0.30;;
22121;SDS011;11227;53.046;10.512;2022-09-09T16:16:25;0.40;;;0.40;;
22121;SDS011;11227;53.046;10.512;2022-09-09T16:20:28;0.40;;;0.40;;
22121;SDS011;11227;53.046;10.512;2022-09-09T16:24:30;0.20;;;0.20;;
22121;SDS011;11227;53.046;10.512;2022-09-09T16:28:31;0.40;;;0.40;;
22121;SDS011;11227;53.046;10.512;2022-09-09T16:32:33;0.30;;;0.30;;
22121;SDS011;11227;53.046;10.512;2022-09-09T16:36:36;0.40;;;0.32;;
22121;SDS011;11227;53.046;10.512;2022-09-09T16:40:40;0.40;;;0.40;;
22121;SDS011;11227;53.046;10.512;2022-09-09T16:44:44;0.50;;;0.50;;
22121;SDS011;11227;53.046;10.512;2022-09-09T16:48:46;0.30;;;0.30;;
22121;SDS011;11227;53.046;10.512;2022-09-09T16:52:48;0.40;;;0.40;;
22121;SDS011;11227;53.046;10.512;2022-09-09T16:56:50;0.40;;;0.40;;
22121;SDS011;11227;53.046;10.512;2022-09-09T17:00:57;0.40;;;0.40;;
22121;SDS011;11227;53.046;10.512;2022-09-09T17:04:59;0.40;;;0.40;;
22121;SDS011;11227;53.046;10.512;2022-09-09T17:09:02;0.50;;;0.50;;
22121;SDS011;11227;53.046;10.512;2022-09-09T17:17:08;0.20;;;0.20;;
22121;SDS011;11227;53.046;10.512;2022-09-09T17:21:30;0.32;;;0.32;;
22121;SDS011;11227;53.046;10.512;2022-09-09T17:25:33;0.30;;;0.30;;
22121;SDS011;11227;53.046;10.512;2022-09-09T17:29:35;0.45;;;0.45;;
22121;SDS011;11227;53.046;10.512;2022-09-09T17:33:42;0.50;;;0.50;;
22121;SDS011;11227;53.046;10.512;2022-09-09T17:41:47;0.30;;;0.30;;
22121;SDS011;11227;53.046;10.512;2022-09-09T17:45:49;0.38;;;0.38;;
22121;SDS011;11227;53.046;10.512;2022-09-09T17:49:51;0.88;;;0.50;;
22121;SDS011;11227;53.046;10.512;2022-09-09T17:53:53;0.32;;;0.32;;
22121;SDS011;11227;53.046;10.512;2022-09-09T17:57:56;0.63;;;0.40;;
22121;SDS011;11227;53.046;10.512;2022-09-09T18:01:57;0.50;;;0.30;;
22121;SDS011;11227;53.046;10.512;2022-09-09T18:06:03;0.30;;;0.30;;
22121;SDS011;11227;53.046;10.512;2022-09-09T18:10:06;0.40;;;0.40;;
22121;SDS011;11227;53.046;10.512;2022-09-09T18:14:09;0.60;;;0.40;;
22121;SDS011;11227;53.046;10.512;2022-09-09T18:18:12;0.30;;;0.30;;
22121;SDS011;11227;53.046;10.512;2022-09-09T18:22:14;0.63;;;0.40;;
22121;SDS011;11227;53.046;10.512;2022-09-09T18:30:37;0.20;;;0.20;;
22121;SDS011;11227;53.046;10.512;2022-09-09T18:34:40;0.30;;;0.30;;
22121;SDS011;11227;53.046;10.512;2022-09-09T18:38:42;0.30;;;0.30;;
22121;SDS011;11227;53.046;10.512;2022-09-09T18:42:45;0.30;;;0.30;;
22121;SDS011;11227;53.046;10.512;2022-09-09T18:46:47;0.40;;;0.40;;
22121;SDS011;11227;53.046;10.512;2022-09-09T18:50:50;0.30;;;0.30;;
22121;SDS011;11227;53.046;10.512;2022-09-09T18:54:52;0.30;;;0.30;;
22121;SDS011;11227;53.046;10.512;2022-09-09T18:58:54;0.60;;;0.40;;
22121;SDS011;11227;53.046;10.512;2022-09-09T19:02:58;0.60;;;0.60;;
22121;SDS011;11227;53.046;10.512;2022-09-09T19:06:59;0.38;;;0.38;;
22121;SDS011;11227;53.046;10.512;2022-09-09T19:11:02;0.30;;;0.30;;
22121;SDS011;11227;53.046;10.512;2022-09-09T19:15:05;0.40;;;0.40;;
22121;SDS011;11227;53.046;10.512;2022-09-09T19:19:08;0.50;;;0.50;;
22121;SDS011;11227;53.046;10.512;2022-09-09T19:23:13;0.20;;;0.20;;
22121;SDS011;11227;53.046;10.512;2022-09-09T19:27:15;0.47;;;0.40;;
22121;SDS011;11227;53.046;10.512;2022-09-09T19:31:17;0.30;;;0.30;;
22121;SDS011;11227;53.046;10.512;2022-09-09T19:35:20;0.40;;;0.40;;
22121;SDS011;11227;53.046;10.512;2022-09-09T19:39:22;0.43;;;0.43;;
22121;SDS011;11227;53.046;10.512;2022-09-09T19:43:24;0.30;;;0.30;;
22121;SDS011;11227;53.046;10.512;2022-09-09T19:47:26;0.40;;;0.40;;
22121;SDS011;11227;53.046;10.512;2022-09-09T19:51:28;0.40;;;0.40;;
22121;SDS011;11227;53.046;10.512;2022-09-09T19:55:31;0.30;;;0.30;;
22121;SDS011;11227;53.046;10.512;2022-09-09T19:59:32;0.35;;;0.35;;
22121;SDS011;11227;53.046;10.512;2022-09-09T20:03:35;0.47;;;0.47;;
22121;SDS011;11227;53.046;10.512;2022-09-09T20:07:38;0.40;;;0.40;;
22121;SDS011;11227;53.046;10.512;2022-09-09T20:11:40;0.40;;;0.40;;
22121;SDS011;11227;53.046;10.512;2022-09-09T20:15:43;0.30;;;0.30;;
22121;SDS011;11227;53.046;10.512;2022-09-09T20:19:44;0.50;;;0.50;;
22121;SDS011;11227;53.046;10.512;2022-09-09T20:23:47;0.32;;;0.32;;
22121;SDS011;11227;53.046;10.512;2022-09-09T20:27:49;0.30;;;0.30;;
22121;SDS011;11227;53.046;10.512;2022-09-09T20:31:51;0.40;;;0.40;;
22121;SDS011;11227;53.046;10.512;2022-09-09T20:35:53;0.30;;;0.30;;
22121;SDS011;11227;53.046;10.512;2022-09-09T20:39:54;0.30;;;0.30;;
22121;SDS011;11227;53.046;10.512;2022-09-09T20:43:57;0.38;;;0.30;;
22121;SDS011;11227;53.046;10.512;2022-09-09T20:48:01;0.30;;;0.30;;
22121;SDS011;11227;53.046;10.512;2022-09-09T20:52:03;0.68;;;0.30;;
22121;SDS011;11227;53.046;10.512;2022-09-09T20:56:07;0.40;;;0.40;;
22121;SDS011;11227;53.046;10.512;2022-09-09T21:00:09;0.30;;;0.30;;
22121;SDS011;11227;53.046;10.512;2022-09-09T21:04:12;0.50;;;0.50;;
22121;SDS011;11227;53.046;10.512;2022-09-09T21:08:15;0.30;;;0.30;;
22121;SDS011;11227;53.046;10.512;2022-09-09T21:12:16;0.38;;;0.38;;
22121;SDS011;11227;53.046;10.512;2022-09-09T21:16:18;0.20;;;0.20;;
22121;SDS011;11227;53.046;10.512;2022-09-09T21:20:21;0.30;;;0.30;;
22121;SDS011;11227;53.046;10.512;2022-09-09T21:24:23;2.53;;;0.45;;
22121;SDS011;11227;53.046;10.512;2022-09-09T21:28:24;0.30;;;0.30;;
22121;SDS011;11227;53.046;10.512;2022-09-09T21:32:27;0.30;;;0.30;;
22121;SDS011;11227;53.046;10.512;2022-09-09T21:36:28;0.30;;;0.30;;
22121;SDS011;11227;53.046;10.512;2022-09-09T21:40:30;0.30;;;0.30;;
22121;SDS011;11227;53.046;10.512;2022-09-09T21:44:32;0.40;;;0.40;;
22121;SDS011;11227;53.046;10.512;2022-09-09T21:48:33;0.30;;;0.30;;
22121;SDS011;11227;53.046;10.512;2022-09-09T21:52:35;0.30;;;0.30;;
22121;SDS011;11227;53.046;10.512;2022-09-09T21:56:36;0.40;;;0.40;;
22121;SDS011;11227;53.046;10.512;2022-09-09T22:00:42;0.30;;;0.30;;
22121;SDS011;11227;53.046;10.512;2022-09-09T22:04:46;0.50;;;0.43;;
22121;SDS011;11227;53.046;10.512;2022-09-09T22:08:47;0.40;;;0.40;;
22121;SDS011;11227;53.046;10.512;2022-09-09T22:12:49;0.30;;;0.30;;
22121;SDS011;11227;53.046;10.512;2022-09-09T22:16:51;0.50;;;0.40;;
22121;SDS011;11227;53.046;10.512;2022-09-09T22:20:53;0.40;;;0.35;;
22121;SDS011;11227;53.046;10.512;2022-09-09T22:24:55;1.55;;;0.40;;
22121;SDS011;11227;53.046;10.512;2022-09-09T22:28:56;0.35;;;0.35;;
22121;SDS011;11227;53.046;10.512;2022-09-09T22:32:59;0.20;;;0.20;;
22121;SDS011;11227;53.046;10.512;2022-09-09T22:37:01;0.20;;;0.20;;
22121;SDS011;11227;53.046;10.512;2022-09-09T22:41:04;1.63;;;0.30;;
22121;SDS011;11227;53.046;10.512;2022-09-09T22:45:06;0.85;;;0.40;;
22121;SDS011;11227;53.046;10.512;2022-09-09T22:49:09;0.25;;;0.25;;
22121;SDS011;11227;53.046;10.512;2022-09-09T22:53:12;0.50;;;0.50;;
22121;SDS011;11227;53.046;10.512;2022-09-09T22:57:15;0.35;;;0.35;;
22121;SDS011;11227;53.046;10.512;2022-09-09T23:01:17;0.40;;;0.30;;
22121;SDS011;11227;53.046;10.512;2022-09-09T23:05:21;0.30;;;0.30;;
22121;SDS011;11227;53.046;10.512;2022-09-09T23:09:24;0.30;;;0.30;;
22121;SDS011;11227;53.046;10.512;2022-09-09T23:13:26;0.20;;;0.20;;
22121;SDS011;11227;53.046;10.512;2022-09-09T23:17:31;0.20;;;0.20;;
22121;SDS011;11227;53.046;10.512;2022-09-09T23:21:34;0.30;;;0.30;;
22121;SDS011;11227;53.046;10.512;2022-09-09T23:25:37;0.30;;;0.30;;
22121;SDS011;11227;53.046;10.512;2022-09-09T23:29:39;0.20;;;0.20;;
22121;SDS011;11227;53.046;10.512;2022-09-09T23:33:41;0.43;;;0.30;;
22121;SDS011;11227;53.046;10.512;2022-09-09T23:37:45;0.30;;;0.30;;
22121;SDS011;11227;53.046;10.512;2022-09-09T23:41:48;0.28;;;0.28;;
22121;SDS011;11227;53.046;10.512;2022-09-09T23:45:50;0.22;;;0.22;;
22121;SDS011;11227;53.046;10.512;2022-09-09T23:49:52;0.55;;;0.50;;
22121;SDS011;11227;53.046;10.512;2022-09-09T23:53:54;0.40;;;0.40;;
22121;SDS011;11227;53.046;10.512;2022-09-09T23:57:57;0.68;;;0.30;;
